createdAt,value
2017-03-23T00:00:16.418Z,18.44
2017-03-23T00:00:48.673Z,18.36
2017-03-23T00:01:21.687Z,18.39
2017-03-23T00:01:53.949Z,18.41
2017-03-23T00:02:26.268Z,18.41
2017-03-23T00:02:58.652Z,18.42
2017-03-23T00:03:30.988Z,18.42
2017-03-23T00:04:03.318Z,18.35
2017-03-23T00:04:35.663Z,18.32
2017-03-23T00:05:07.997Z,18.35
2017-03-23T00:05:40.353Z,18.32
2017-03-23T00:06:12.697Z,18.34
2017-03-23T00:06:45.034Z,18.38
2017-03-23T00:07:17.360Z,18.39
2017-03-23T00:07:49.670Z,18.31
2017-03-23T00:08:21.991Z,18.38
2017-03-23T00:08:54.355Z,18.27
2017-03-23T00:09:26.684Z,18.34
2017-03-23T00:09:59.015Z,18.27
2017-03-23T00:10:31.325Z,18.29
2017-03-23T00:11:03.637Z,18.34
2017-03-23T00:11:35.978Z,18.35
2017-03-23T00:12:08.314Z,18.32
2017-03-23T00:12:40.573Z,18.35
2017-03-23T00:13:12.833Z,18.36
2017-03-23T00:13:45.083Z,18.38
2017-03-23T00:14:17.337Z,18.38
2017-03-23T00:14:49.587Z,18.34
2017-03-23T00:15:21.858Z,18.41
2017-03-23T00:15:54.118Z,18.34
2017-03-23T00:16:26.373Z,18.34
2017-03-23T00:16:58.633Z,18.34
2017-03-23T00:17:30.878Z,18.45
2017-03-23T00:18:03.136Z,18.38
2017-03-23T00:18:35.405Z,18.29
2017-03-23T00:19:07.667Z,18.29
2017-03-23T00:19:39.930Z,18.31
2017-03-23T00:20:12.173Z,18.32
2017-03-23T00:20:44.459Z,18.26
2017-03-23T00:21:17.692Z,18.32
2017-03-23T00:21:49.938Z,18.41
2017-03-23T00:22:22.267Z,18.31
2017-03-23T00:22:54.636Z,18.35
2017-03-23T00:23:26.968Z,18.34
2017-03-23T00:23:59.301Z,18.35
2017-03-23T00:24:31.623Z,18.34
2017-03-23T00:25:03.946Z,18.38
2017-03-23T00:25:36.287Z,18.38
2017-03-23T00:26:08.615Z,18.29
2017-03-23T00:26:40.946Z,18.34
2017-03-23T00:27:13.263Z,18.32
2017-03-23T00:27:45.580Z,18.34
2017-03-23T00:28:17.914Z,18.32
2017-03-23T00:28:50.249Z,18.31
2017-03-23T00:29:22.582Z,18.36
2017-03-23T00:29:54.904Z,18.24
2017-03-23T00:30:27.215Z,18.35
2017-03-23T00:30:59.563Z,18.31
2017-03-23T00:31:31.887Z,18.17
2017-03-23T00:32:04.223Z,18.31
2017-03-23T00:32:36.552Z,18.27
2017-03-23T00:33:08.860Z,18.29
2017-03-23T00:33:41.187Z,18.34
2017-03-23T00:34:13.508Z,18.27
2017-03-23T00:34:45.834Z,18.29
2017-03-23T00:35:18.158Z,18.27
2017-03-23T00:35:50.501Z,18.31
2017-03-23T00:36:22.849Z,18.26
2017-03-23T00:36:55.195Z,18.31
2017-03-23T00:37:27.528Z,18.21
2017-03-23T00:37:59.871Z,18.16
2017-03-23T00:38:32.188Z,18.21
2017-03-23T00:39:04.511Z,18.16
2017-03-23T00:39:36.822Z,18.23
2017-03-23T00:40:09.151Z,18.2
2017-03-23T00:40:41.477Z,18.21
2017-03-23T00:41:13.803Z,18.16
2017-03-23T00:41:46.140Z,18.23
2017-03-23T00:42:18.432Z,18.19
2017-03-23T00:42:50.692Z,18.16
2017-03-23T00:43:22.952Z,18.26
2017-03-23T00:43:55.734Z,18.21
2017-03-23T00:44:28.003Z,18.32
2017-03-23T00:45:01.078Z,18.16
2017-03-23T00:45:33.327Z,18.29
2017-03-23T00:46:05.591Z,18.14
2017-03-23T00:46:38.710Z,18.21
2017-03-23T00:47:10.974Z,18.19
2017-03-23T00:47:43.232Z,18.14
2017-03-23T00:48:15.456Z,18.24
2017-03-23T00:48:47.714Z,18.24
2017-03-23T00:49:19.981Z,18.19
2017-03-23T00:49:52.227Z,18.23
2017-03-23T00:50:25.112Z,18.19
2017-03-23T00:50:57.378Z,18.23
2017-03-23T00:51:29.666Z,18.21
2017-03-23T00:52:01.923Z,18.16
2017-03-23T00:52:34.274Z,18.19
2017-03-23T00:53:06.604Z,18.21
2017-03-23T00:53:38.935Z,18.19
2017-03-23T00:54:11.258Z,18.2
2017-03-23T00:54:43.579Z,18.23
2017-03-23T00:55:15.906Z,18.19
2017-03-23T00:55:48.220Z,18.2
2017-03-23T00:56:20.573Z,18.23
2017-03-23T00:56:52.914Z,18.2
2017-03-23T00:57:25.238Z,18.14
2017-03-23T00:57:57.558Z,18.2
2017-03-23T00:58:29.872Z,18.13
2017-03-23T00:59:02.188Z,18.17
2017-03-23T00:59:34.498Z,18.19
2017-03-23T01:00:06.832Z,18.2
2017-03-23T01:00:40.019Z,18.2
2017-03-23T01:01:12.352Z,18.19
2017-03-23T01:01:44.681Z,18.16
2017-03-23T01:02:17.720Z,18.21
2017-03-23T01:02:50.065Z,18.2
2017-03-23T01:03:22.389Z,18.23
2017-03-23T01:03:54.725Z,18.2
2017-03-23T01:04:27.053Z,18.19
2017-03-23T01:04:59.389Z,18.2
2017-03-23T01:05:31.705Z,18.16
2017-03-23T01:06:04.042Z,18.2
2017-03-23T01:06:39.046Z,18.21
2017-03-23T01:07:11.409Z,18.21
2017-03-23T01:07:43.729Z,18.14
2017-03-23T01:08:16.050Z,18.23
2017-03-23T01:08:48.362Z,18.17
2017-03-23T01:09:20.681Z,18.19
2017-03-23T01:09:53.005Z,18.17
2017-03-23T01:10:25.329Z,18.16
2017-03-23T01:10:57.693Z,18.27
2017-03-23T01:11:30.030Z,18.17
2017-03-23T01:12:02.361Z,18.17
2017-03-23T01:12:34.695Z,18.19
2017-03-23T01:13:07.032Z,18.17
2017-03-23T01:13:39.347Z,18.16
2017-03-23T01:14:11.657Z,18.14
2017-03-23T01:14:43.993Z,18.14
2017-03-23T01:15:16.331Z,18.19
2017-03-23T01:15:48.657Z,18.19
2017-03-23T01:16:20.981Z,18.19
2017-03-23T01:16:53.325Z,18.2
2017-03-23T01:17:25.701Z,18.19
2017-03-23T01:17:58.032Z,18.2
2017-03-23T01:18:30.357Z,18.21
2017-03-23T01:19:02.675Z,18.17
2017-03-23T01:19:35.025Z,18.17
2017-03-23T01:20:07.359Z,18.19
2017-03-23T01:20:39.700Z,18.17
2017-03-23T01:21:12.020Z,18.21
2017-03-23T01:21:44.350Z,18.19
2017-03-23T01:22:16.686Z,18.17
2017-03-23T01:22:49.010Z,18.19
2017-03-23T01:23:21.337Z,18.2
2017-03-23T01:23:53.664Z,18.19
2017-03-23T01:24:25.994Z,18.16
2017-03-23T01:24:58.309Z,18.17
2017-03-23T01:25:30.648Z,18.21
2017-03-23T01:26:02.977Z,18.19
2017-03-23T01:26:35.316Z,18.19
2017-03-23T01:27:07.662Z,18.16
2017-03-23T01:27:40.004Z,18.2
2017-03-23T01:28:12.343Z,18.26
2017-03-23T01:28:44.663Z,18.2
2017-03-23T01:29:16.984Z,18.21
2017-03-23T01:29:49.312Z,18.1
2017-03-23T01:30:21.670Z,18.23
2017-03-23T01:30:53.988Z,18.21
2017-03-23T01:31:26.325Z,18.16
2017-03-23T01:31:58.652Z,18.19
2017-03-23T01:32:30.916Z,18.19
2017-03-23T01:33:04.052Z,18.2
2017-03-23T01:33:36.308Z,18.2
2017-03-23T01:34:08.652Z,18.19
2017-03-23T01:34:40.916Z,18.2
2017-03-23T01:35:13.165Z,18.14
2017-03-23T01:35:45.412Z,18.21
2017-03-23T01:36:17.705Z,18.13
2017-03-23T01:36:49.958Z,18.2
2017-03-23T01:37:22.205Z,18.2
2017-03-23T01:37:54.446Z,18.19
2017-03-23T01:38:26.709Z,18.17
2017-03-23T01:38:58.959Z,18.2
2017-03-23T01:39:31.216Z,18.19
2017-03-23T01:40:03.644Z,18.14
2017-03-23T01:40:35.891Z,18.19
2017-03-23T01:41:08.143Z,18.2
2017-03-23T01:41:40.405Z,18.2
2017-03-23T01:42:13.533Z,18.16
2017-03-23T01:42:45.854Z,18.23
2017-03-23T01:43:18.179Z,18.23
2017-03-23T01:43:50.512Z,18.21
2017-03-23T01:44:22.845Z,18.21
2017-03-23T01:44:55.159Z,18.17
2017-03-23T01:45:27.481Z,18.23
2017-03-23T01:45:59.824Z,18.17
2017-03-23T01:46:32.169Z,18.21
2017-03-23T01:47:04.495Z,18.26
2017-03-23T01:47:36.826Z,18.2
2017-03-23T01:48:09.149Z,18.2
2017-03-23T01:48:41.506Z,18.19
2017-03-23T01:49:13.842Z,18.2
2017-03-23T01:49:46.158Z,18.24
2017-03-23T01:50:18.473Z,18.2
2017-03-23T01:50:50.797Z,18.16
2017-03-23T01:51:23.129Z,18.17
2017-03-23T01:51:55.460Z,18.19
2017-03-23T01:52:27.710Z,18.14
2017-03-23T01:52:59.976Z,18.17
2017-03-23T01:53:32.241Z,18.19
2017-03-23T01:54:04.498Z,18.24
2017-03-23T01:54:36.753Z,18.23
2017-03-23T01:55:09.730Z,18.21
2017-03-23T01:55:42.011Z,18.19
2017-03-23T01:56:14.276Z,18.17
2017-03-23T01:56:46.525Z,18.16
2017-03-23T01:57:18.782Z,18.19
2017-03-23T01:57:51.137Z,18.17
2017-03-23T01:58:23.411Z,18.21
2017-03-23T01:58:55.681Z,18.2
2017-03-23T01:59:27.940Z,18.21
2017-03-23T02:00:00.203Z,18.2
2017-03-23T02:00:33.203Z,18.2
2017-03-23T02:01:05.477Z,18.2
2017-03-23T02:01:37.721Z,18.2
2017-03-23T02:02:10.707Z,18.2
2017-03-23T02:02:43.046Z,18.17
2017-03-23T02:03:15.425Z,18.21
2017-03-23T02:03:47.757Z,18.16
2017-03-23T02:04:20.081Z,18.14
2017-03-23T02:04:52.416Z,18.23
2017-03-23T02:05:24.759Z,18.11
2017-03-23T02:05:57.102Z,18.16
2017-03-23T02:06:29.438Z,18.2
2017-03-23T02:07:01.769Z,18.16
2017-03-23T02:07:34.105Z,18.19
2017-03-23T02:08:06.422Z,18.23
2017-03-23T02:08:38.732Z,18.19
2017-03-23T02:09:11.053Z,18.16
2017-03-23T02:09:43.393Z,18.17
2017-03-23T02:10:15.749Z,18.06
2017-03-23T02:10:48.085Z,18.1
2017-03-23T02:11:20.410Z,18.21
2017-03-23T02:11:52.734Z,18.13
2017-03-23T02:12:25.058Z,18.14
2017-03-23T02:12:57.400Z,18.16
2017-03-23T02:13:29.733Z,18.16
2017-03-23T02:14:02.059Z,18.14
2017-03-23T02:14:34.388Z,18.24
2017-03-23T02:15:06.728Z,18.16
2017-03-23T02:15:39.064Z,18.14
2017-03-23T02:16:11.390Z,18.14
2017-03-23T02:16:43.717Z,18.16
2017-03-23T02:17:16.048Z,18.13
2017-03-23T02:17:48.377Z,18.13
2017-03-23T02:18:20.711Z,18.23
2017-03-23T02:18:53.028Z,18.1
2017-03-23T02:19:25.354Z,18.14
2017-03-23T02:19:57.679Z,18.23
2017-03-23T02:20:29.991Z,18.11
2017-03-23T02:21:02.337Z,18.2
2017-03-23T02:21:34.667Z,18.13
2017-03-23T02:22:07.005Z,18.11
2017-03-23T02:22:39.331Z,18.29
2017-03-23T02:23:11.655Z,18.06
2017-03-23T02:23:43.983Z,18.08
2017-03-23T02:24:16.313Z,18.2
2017-03-23T02:24:48.632Z,18.13
2017-03-23T02:25:20.963Z,18.13
2017-03-23T02:25:53.304Z,18.17
2017-03-23T02:26:25.637Z,18.17
2017-03-23T02:26:57.963Z,18.19
2017-03-23T02:27:30.292Z,18.11
2017-03-23T02:28:02.620Z,18.17
2017-03-23T02:28:34.954Z,18.11
2017-03-23T02:29:07.283Z,18.17
2017-03-23T02:29:39.624Z,18.16
2017-03-23T02:30:11.957Z,18.21
2017-03-23T02:30:44.291Z,18.19
2017-03-23T02:31:16.607Z,18.2
2017-03-23T02:31:48.935Z,18.08
2017-03-23T02:32:21.274Z,18.21
2017-03-23T02:32:53.598Z,18.17
2017-03-23T02:33:25.924Z,18.08
2017-03-23T02:33:58.271Z,18.05
2017-03-23T02:34:30.611Z,18.17
2017-03-23T02:35:02.955Z,18.14
2017-03-23T02:35:35.294Z,18.17
2017-03-23T02:36:07.637Z,18.05
2017-03-23T02:36:39.976Z,18.17
2017-03-23T02:37:12.301Z,18.11
2017-03-23T02:37:44.627Z,18.11
2017-03-23T02:38:16.970Z,18.13
2017-03-23T02:38:49.309Z,18.2
2017-03-23T02:39:21.639Z,18.16
2017-03-23T02:39:53.971Z,18.08
2017-03-23T02:40:26.303Z,18.17
2017-03-23T02:40:58.635Z,18.1
2017-03-23T02:41:30.950Z,18.11
2017-03-23T02:42:03.281Z,18.17
2017-03-23T02:42:35.606Z,18.19
2017-03-23T02:43:07.922Z,18.13
2017-03-23T02:43:40.264Z,18.06
2017-03-23T02:44:12.581Z,18.2
2017-03-23T02:44:44.915Z,18.06
2017-03-23T02:45:17.249Z,18.05
2017-03-23T02:45:49.592Z,18.17
2017-03-23T02:46:21.918Z,18.06
2017-03-23T02:46:54.239Z,18.08
2017-03-23T02:47:26.580Z,18.03
2017-03-23T02:47:58.917Z,18.06
2017-03-23T02:48:31.243Z,18.16
2017-03-23T02:49:03.565Z,18.06
2017-03-23T02:49:35.881Z,18.05
2017-03-23T02:50:08.214Z,18.14
2017-03-23T02:50:40.546Z,18.13
2017-03-23T02:51:12.911Z,18.08
2017-03-23T02:51:45.237Z,18.03
2017-03-23T02:52:17.562Z,18.08
2017-03-23T02:52:49.878Z,18.13
2017-03-23T02:53:22.204Z,18.16
2017-03-23T02:53:54.531Z,18.03
2017-03-23T02:54:26.860Z,18.14
2017-03-23T02:54:59.198Z,18.06
2017-03-23T02:55:31.521Z,18.03
2017-03-23T02:56:03.842Z,18.16
2017-03-23T02:56:36.174Z,18.05
2017-03-23T02:57:08.505Z,18.17
2017-03-23T02:57:40.831Z,18.1
2017-03-23T02:58:13.169Z,18.06
2017-03-23T02:58:45.494Z,18.17
2017-03-23T02:59:17.817Z,18.14
2017-03-23T02:59:50.155Z,18.02
2017-03-23T03:00:22.490Z,18.2
2017-03-23T03:00:54.805Z,18.1
2017-03-23T03:01:27.127Z,18.03
2017-03-23T03:01:59.460Z,18.05
2017-03-23T03:02:31.788Z,18.14
2017-03-23T03:03:04.115Z,18.06
2017-03-23T03:03:36.447Z,18.03
2017-03-23T03:04:08.770Z,18.2
2017-03-23T03:04:41.102Z,18.08
2017-03-23T03:05:13.434Z,18.03
2017-03-23T03:05:45.777Z,18.06
2017-03-23T03:06:18.115Z,18.03
2017-03-23T03:06:50.437Z,18.05
2017-03-23T03:07:22.769Z,18.05
2017-03-23T03:07:55.105Z,18.06
2017-03-23T03:08:27.429Z,18.02
2017-03-23T03:08:59.754Z,18.05
2017-03-23T03:09:32.078Z,18.02
2017-03-23T03:10:04.460Z,18.1
2017-03-23T03:10:36.823Z,18.05
2017-03-23T03:11:09.161Z,18.05
2017-03-23T03:11:41.501Z,18.1
2017-03-23T03:12:13.838Z,18.05
2017-03-23T03:12:46.087Z,18.03
2017-03-23T03:13:18.331Z,18.1
2017-03-23T03:13:50.601Z,18.02
2017-03-23T03:14:22.861Z,18.02
2017-03-23T03:14:55.097Z,18.08
2017-03-23T03:15:28.226Z,18.02
2017-03-23T03:16:00.493Z,18.11
2017-03-23T03:16:32.751Z,18.1
2017-03-23T03:17:05.012Z,18.03
2017-03-23T03:17:37.290Z,18.06
2017-03-23T03:18:09.559Z,17.99
2017-03-23T03:18:41.818Z,18.08
2017-03-23T03:19:14.063Z,18.08
2017-03-23T03:19:46.333Z,18.06
2017-03-23T03:20:18.594Z,18.08
2017-03-23T03:20:50.856Z,18.03
2017-03-23T03:21:23.118Z,18.06
2017-03-23T03:21:55.410Z,18.03
2017-03-23T03:22:27.669Z,18.13
2017-03-23T03:22:59.928Z,18.02
2017-03-23T03:23:32.177Z,18.05
2017-03-23T03:24:04.403Z,18.02
2017-03-23T03:24:36.786Z,18.05
2017-03-23T03:25:09.048Z,18.06
2017-03-23T03:25:41.301Z,18.02
2017-03-23T03:26:14.298Z,18.06
2017-03-23T03:26:46.543Z,18.08
2017-03-23T03:27:18.806Z,18.01
2017-03-23T03:27:51.053Z,18.13
2017-03-23T03:28:23.338Z,18.08
2017-03-23T03:28:55.595Z,18.05
2017-03-23T03:29:27.882Z,18.1
2017-03-23T03:30:00.150Z,18.02
2017-03-23T03:30:32.413Z,18.11
2017-03-23T03:31:04.662Z,18.14
2017-03-23T03:31:36.916Z,18.03
2017-03-23T03:32:09.411Z,18.1
2017-03-23T03:32:41.659Z,18.08
2017-03-23T03:33:13.913Z,18.08
2017-03-23T03:33:46.189Z,18.08
2017-03-23T03:34:19.132Z,18.08
2017-03-23T03:34:51.390Z,18.06
2017-03-23T03:35:23.616Z,18.11
2017-03-23T03:35:55.894Z,18.03
2017-03-23T03:36:28.273Z,18.1
2017-03-23T03:37:00.523Z,18.1
2017-03-23T03:37:32.783Z,18.16
2017-03-23T03:38:05.027Z,18.1
2017-03-23T03:38:37.274Z,18.11
2017-03-23T03:39:09.519Z,18.03
2017-03-23T03:39:41.805Z,18.06
2017-03-23T03:40:14.631Z,18.02
2017-03-23T03:40:46.916Z,18.06
2017-03-23T03:41:19.163Z,18.02
2017-03-23T03:41:51.422Z,18.1
2017-03-23T03:42:23.765Z,18.08
2017-03-23T03:42:56.102Z,18.01
2017-03-23T03:43:28.441Z,18.08
2017-03-23T03:44:00.770Z,18.05
2017-03-23T03:44:33.114Z,18.13
2017-03-23T03:45:05.444Z,18.1
2017-03-23T03:45:37.778Z,18.02
2017-03-23T03:46:10.110Z,18.13
2017-03-23T03:46:42.445Z,17.99
2017-03-23T03:47:14.791Z,18.11
2017-03-23T03:47:47.130Z,18.1
2017-03-23T03:48:19.448Z,18.08
2017-03-23T03:48:51.775Z,18.08
2017-03-23T03:49:24.098Z,18.01
2017-03-23T03:49:56.437Z,17.99
2017-03-23T03:50:28.773Z,18.03
2017-03-23T03:51:01.088Z,18.08
2017-03-23T03:51:33.423Z,18.1
2017-03-23T03:52:05.744Z,18.01
2017-03-23T03:52:38.082Z,18.1
2017-03-23T03:53:10.411Z,18.08
2017-03-23T03:53:42.737Z,17.99
2017-03-23T03:54:15.063Z,18.08
2017-03-23T03:54:47.385Z,18.03
2017-03-23T03:55:19.708Z,18.02
2017-03-23T03:55:52.022Z,18.02
2017-03-23T03:56:24.338Z,18.03
2017-03-23T03:56:56.664Z,18.02
2017-03-23T03:57:28.996Z,18.03
2017-03-23T03:58:01.331Z,18.05
2017-03-23T03:58:33.694Z,18.1
2017-03-23T03:59:06.023Z,18.01
2017-03-23T03:59:38.357Z,18.02
2017-03-23T04:00:10.677Z,18.02
2017-03-23T04:00:43.015Z,18.05
2017-03-23T04:01:15.354Z,18.1
2017-03-23T04:01:47.687Z,18.1
2017-03-23T04:02:20.759Z,18.02
2017-03-23T04:02:53.670Z,18.02
2017-03-23T04:03:25.927Z,18.05
2017-03-23T04:03:58.186Z,18.05
2017-03-23T04:04:30.433Z,18.11
2017-03-23T04:05:02.681Z,18.02
2017-03-23T04:05:35.670Z,18.01
2017-03-23T04:06:07.934Z,18.01
2017-03-23T04:06:40.779Z,18.06
2017-03-23T04:07:13.033Z,17.99
2017-03-23T04:07:45.300Z,17.99
2017-03-23T04:08:17.559Z,18.06
2017-03-23T04:08:49.813Z,18.03
2017-03-23T04:09:22.087Z,18.1
2017-03-23T04:09:55.145Z,18.05
2017-03-23T04:10:27.390Z,18.02
2017-03-23T04:10:59.665Z,18.05
2017-03-23T04:11:31.936Z,18.02
2017-03-23T04:12:04.202Z,17.95
2017-03-23T04:12:36.528Z,17.98
2017-03-23T04:13:08.869Z,17.99
2017-03-23T04:13:41.204Z,17.98
2017-03-23T04:14:13.547Z,18.05
2017-03-23T04:14:45.872Z,17.99
2017-03-23T04:15:18.185Z,18.08
2017-03-23T04:15:50.526Z,18.02
2017-03-23T04:16:22.858Z,17.99
2017-03-23T04:16:55.201Z,17.99
2017-03-23T04:17:27.517Z,18.05
2017-03-23T04:17:59.891Z,18.01
2017-03-23T04:18:32.212Z,18.1
2017-03-23T04:19:04.552Z,18.03
2017-03-23T04:19:36.915Z,17.99
2017-03-23T04:20:09.245Z,17.95
2017-03-23T04:20:41.574Z,17.95
2017-03-23T04:21:13.898Z,18.05
2017-03-23T04:21:46.220Z,18.02
2017-03-23T04:22:18.538Z,17.98
2017-03-23T04:22:50.834Z,17.99
2017-03-23T04:23:23.090Z,18.01
2017-03-23T04:23:56.798Z,17.99
2017-03-23T04:24:30.228Z,17.95
2017-03-23T04:25:03.295Z,17.99
2017-03-23T04:25:36.795Z,18.02
2017-03-23T04:26:10.770Z,17.99
2017-03-23T04:26:45.289Z,18.01
2017-03-23T04:27:18.160Z,17.99
2017-03-23T04:27:51.777Z,17.94
2017-03-23T04:28:25.234Z,17.98
2017-03-23T04:28:59.394Z,17.98
2017-03-23T04:29:33.743Z,18.06
2017-03-23T04:30:07.773Z,17.98
2017-03-23T04:30:41.267Z,18.05
2017-03-23T04:31:14.895Z,18.1
2017-03-23T04:31:48.279Z,18.01
2017-03-23T04:32:20.651Z,17.98
2017-03-23T04:32:52.989Z,18.01
2017-03-23T04:33:25.327Z,18.01
2017-03-23T04:33:57.647Z,18.03
2017-03-23T04:34:29.974Z,18.03
2017-03-23T04:35:02.319Z,18.01
2017-03-23T04:35:34.637Z,17.98
2017-03-23T04:36:06.942Z,17.99
2017-03-23T04:36:39.272Z,18.03
2017-03-23T04:37:11.603Z,17.99
2017-03-23T04:37:43.943Z,17.98
2017-03-23T04:38:16.274Z,17.96
2017-03-23T04:38:48.618Z,18.05
2017-03-23T04:39:20.944Z,18.01
2017-03-23T04:39:53.288Z,18.01
2017-03-23T04:40:25.624Z,17.9
2017-03-23T04:40:57.977Z,18.03
2017-03-23T04:41:30.308Z,17.95
2017-03-23T04:42:02.612Z,17.92
2017-03-23T04:42:34.866Z,17.96
2017-03-23T04:43:07.132Z,17.99
2017-03-23T04:43:39.394Z,17.96
2017-03-23T04:44:11.648Z,17.98
2017-03-23T04:44:44.698Z,18.02
2017-03-23T04:45:16.955Z,17.99
2017-03-23T04:45:49.338Z,18.08
2017-03-23T04:46:21.607Z,18.02
2017-03-23T04:46:53.858Z,17.94
2017-03-23T04:47:26.158Z,17.96
2017-03-23T04:47:58.400Z,17.94
2017-03-23T04:48:31.176Z,17.92
2017-03-23T04:49:03.478Z,17.9
2017-03-23T04:49:35.726Z,18.02
2017-03-23T04:50:07.991Z,17.9
2017-03-23T04:50:40.304Z,17.94
2017-03-23T04:51:12.549Z,18.03
2017-03-23T04:51:44.807Z,18.01
2017-03-23T04:52:17.058Z,17.9
2017-03-23T04:52:49.387Z,17.95
2017-03-23T04:53:21.700Z,17.98
2017-03-23T04:53:54.021Z,17.92
2017-03-23T04:54:26.359Z,17.98
2017-03-23T04:54:58.690Z,17.98
2017-03-23T04:55:31.024Z,17.99
2017-03-23T04:56:03.351Z,17.9
2017-03-23T04:56:35.672Z,17.9
2017-03-23T04:57:08.003Z,17.98
2017-03-23T04:57:40.321Z,17.98
2017-03-23T04:58:12.643Z,17.96
2017-03-23T04:58:44.977Z,18.01
2017-03-23T04:59:17.301Z,17.96
2017-03-23T04:59:49.630Z,17.95
2017-03-23T05:00:21.941Z,17.99
2017-03-23T05:00:54.270Z,17.92
2017-03-23T05:01:26.595Z,17.99
2017-03-23T05:01:58.933Z,17.92
2017-03-23T05:02:31.187Z,17.92
2017-03-23T05:03:03.482Z,17.99
2017-03-23T05:03:35.736Z,17.88
2017-03-23T05:04:08.001Z,17.94
2017-03-23T05:04:40.283Z,17.98
2017-03-23T05:05:12.532Z,17.94
2017-03-23T05:05:44.784Z,17.95
2017-03-23T05:06:17.050Z,18.02
2017-03-23T05:06:49.303Z,17.95
2017-03-23T05:07:21.553Z,17.96
2017-03-23T05:07:53.822Z,18.03
2017-03-23T05:08:26.072Z,17.98
2017-03-23T05:08:58.345Z,17.94
2017-03-23T05:09:30.602Z,18.02
2017-03-23T05:10:02.872Z,17.95
2017-03-23T05:10:35.141Z,17.87
2017-03-23T05:11:08.293Z,17.99
2017-03-23T05:11:40.615Z,17.96
2017-03-23T05:12:12.878Z,17.96
2017-03-23T05:12:45.131Z,17.96
2017-03-23T05:13:17.409Z,17.94
2017-03-23T05:13:49.660Z,18.02
2017-03-23T05:14:21.902Z,17.87
2017-03-23T05:14:54.164Z,17.92
2017-03-23T05:15:26.421Z,17.9
2017-03-23T05:15:58.706Z,17.99
2017-03-23T05:16:31.833Z,17.92
2017-03-23T05:17:04.092Z,17.98
2017-03-23T05:17:36.346Z,17.9
2017-03-23T05:18:08.593Z,18.06
2017-03-23T05:18:40.875Z,17.96
2017-03-23T05:19:13.696Z,17.94
2017-03-23T05:19:45.971Z,17.99
2017-03-23T05:20:18.232Z,17.92
2017-03-23T05:20:50.490Z,17.9
2017-03-23T05:21:22.791Z,18.06
2017-03-23T05:21:55.046Z,17.96
2017-03-23T05:22:27.370Z,17.96
2017-03-23T05:22:59.711Z,17.9
2017-03-23T05:23:32.039Z,17.96
2017-03-23T05:24:04.365Z,17.92
2017-03-23T05:24:36.695Z,17.92
2017-03-23T05:25:09.019Z,17.95
2017-03-23T05:25:41.346Z,17.95
2017-03-23T05:26:13.669Z,18.02
2017-03-23T05:26:45.984Z,17.94
2017-03-23T05:27:18.307Z,17.95
2017-03-23T05:27:50.619Z,17.98
2017-03-23T05:28:22.948Z,17.99
2017-03-23T05:28:55.258Z,17.94
2017-03-23T05:29:27.583Z,17.94
2017-03-23T05:29:59.907Z,17.98
2017-03-23T05:30:32.237Z,17.87
2017-03-23T05:31:04.572Z,17.96
2017-03-23T05:31:36.901Z,17.9
2017-03-23T05:32:09.233Z,17.98
2017-03-23T05:32:41.514Z,17.96
2017-03-23T05:33:13.788Z,17.95
2017-03-23T05:33:46.053Z,17.98
2017-03-23T05:34:18.347Z,18.01
2017-03-23T05:34:50.621Z,17.98
2017-03-23T05:35:22.880Z,17.94
2017-03-23T05:35:55.645Z,17.96
2017-03-23T05:36:27.972Z,17.94
2017-03-23T05:37:00.231Z,17.95
2017-03-23T05:37:32.496Z,18.02
2017-03-23T05:38:04.756Z,17.96
2017-03-23T05:38:37.149Z,17.9
2017-03-23T05:39:09.388Z,17.96
2017-03-23T05:39:41.607Z,17.94
2017-03-23T05:40:14.709Z,17.92
2017-03-23T05:40:46.968Z,18.01
2017-03-23T05:41:19.218Z,17.96
2017-03-23T05:41:51.481Z,18.02
2017-03-23T05:42:23.816Z,18.03
2017-03-23T05:42:56.133Z,18.05
2017-03-23T05:43:28.470Z,18.06
2017-03-23T05:44:00.802Z,18.01
2017-03-23T05:44:33.132Z,17.99
2017-03-23T05:45:05.462Z,17.95
2017-03-23T05:45:37.787Z,18.01
2017-03-23T05:46:10.139Z,18.03
2017-03-23T05:46:42.477Z,18.01
2017-03-23T05:47:14.802Z,17.94
2017-03-23T05:47:47.126Z,18.05
2017-03-23T05:48:19.446Z,17.98
2017-03-23T05:48:51.781Z,17.99
2017-03-23T05:49:24.106Z,18.06
2017-03-23T05:49:56.431Z,18.03
2017-03-23T05:50:28.751Z,17.98
2017-03-23T05:51:01.104Z,18.01
2017-03-23T05:51:33.446Z,18.01
2017-03-23T05:52:05.776Z,17.96
2017-03-23T05:52:38.042Z,17.95
2017-03-23T05:53:10.294Z,18.08
2017-03-23T05:53:42.535Z,17.95
2017-03-23T05:54:16.321Z,17.98
2017-03-23T05:54:48.592Z,18.03
2017-03-23T05:55:20.836Z,17.95
2017-03-23T05:55:53.090Z,18.01
2017-03-23T05:56:25.335Z,18.05
2017-03-23T05:56:57.643Z,17.98
2017-03-23T05:57:29.884Z,18.02
2017-03-23T05:58:02.148Z,18.01
2017-03-23T05:58:34.407Z,18.02
2017-03-23T05:59:06.655Z,18.03
2017-03-23T05:59:38.907Z,17.99
2017-03-23T06:00:11.166Z,17.95
2017-03-23T06:00:43.520Z,17.99
2017-03-23T06:01:15.790Z,17.99
2017-03-23T06:01:48.038Z,18.03
2017-03-23T06:02:20.371Z,18.08
2017-03-23T06:02:52.707Z,18.05
2017-03-23T06:03:25.038Z,18.01
2017-03-23T06:03:57.360Z,18.06
2017-03-23T06:04:29.683Z,18.05
2017-03-23T06:05:02.003Z,17.99
2017-03-23T06:05:34.325Z,17.98
2017-03-23T06:06:06.679Z,18.06
2017-03-23T06:06:39.012Z,17.99
2017-03-23T06:07:11.350Z,18.02
2017-03-23T06:07:43.670Z,18.01
2017-03-23T06:08:16.018Z,17.99
2017-03-23T06:08:48.344Z,18.05
2017-03-23T06:09:20.677Z,18.06
2017-03-23T06:09:53.004Z,18.02
2017-03-23T06:10:25.332Z,17.99
2017-03-23T06:10:57.645Z,18.06
2017-03-23T06:11:29.978Z,18.01
2017-03-23T06:12:02.309Z,18.02
2017-03-23T06:12:34.551Z,18.1
2017-03-23T06:13:06.818Z,18.05
2017-03-23T06:13:39.068Z,18.05
2017-03-23T06:14:11.346Z,18.1
2017-03-23T06:14:43.590Z,18.03
2017-03-23T06:15:15.845Z,17.99
2017-03-23T06:15:48.822Z,18.16
2017-03-23T06:16:21.121Z,18.01
2017-03-23T06:16:53.377Z,18.01
2017-03-23T06:17:25.716Z,17.98
2017-03-23T06:17:57.979Z,18.06
2017-03-23T06:18:30.271Z,18.1
2017-03-23T06:19:02.533Z,18.08
2017-03-23T06:19:34.822Z,18.06
2017-03-23T06:20:07.071Z,18.02
2017-03-23T06:20:39.332Z,18.08
2017-03-23T06:21:11.586Z,18.06
2017-03-23T06:21:43.843Z,18.14
2017-03-23T06:22:16.101Z,18.11
2017-03-23T06:22:48.483Z,18.1
2017-03-23T06:23:20.731Z,18.01
2017-03-23T06:23:53.001Z,18.02
2017-03-23T06:24:25.255Z,18.13
2017-03-23T06:24:57.483Z,18.06
2017-03-23T06:25:29.735Z,18.02
2017-03-23T06:26:01.982Z,18.11
2017-03-23T06:26:34.226Z,18.08
2017-03-23T06:27:06.488Z,18.06
2017-03-23T06:27:38.763Z,18.03
2017-03-23T06:28:11.020Z,18.06
2017-03-23T06:28:43.838Z,18.05
2017-03-23T06:29:16.119Z,18.06
2017-03-23T06:29:48.490Z,18.1
2017-03-23T06:30:20.770Z,18.05
2017-03-23T06:30:53.051Z,18.03
2017-03-23T06:31:25.327Z,18.03
2017-03-23T06:31:57.580Z,18.1
2017-03-23T06:32:29.915Z,18.21
2017-03-23T06:33:02.303Z,18.16
2017-03-23T06:33:35.040Z,18.08
2017-03-23T06:34:07.365Z,18.1
2017-03-23T06:34:39.720Z,18.01
2017-03-23T06:35:12.058Z,18.17
2017-03-23T06:35:44.398Z,18.13
2017-03-23T06:36:16.713Z,18.2
2017-03-23T06:36:49.042Z,18.13
2017-03-23T06:37:21.369Z,18.14
2017-03-23T06:37:53.719Z,18.11
2017-03-23T06:38:26.049Z,18.17
2017-03-23T06:38:58.384Z,18.2
2017-03-23T06:39:30.725Z,18.2
2017-03-23T06:40:03.041Z,18.16
2017-03-23T06:40:35.375Z,18.06
2017-03-23T06:41:07.722Z,18.21
2017-03-23T06:41:40.042Z,18.16
2017-03-23T06:42:12.357Z,18.2
2017-03-23T06:42:44.606Z,18.16
2017-03-23T06:43:16.865Z,18.16
2017-03-23T06:43:49.113Z,18.14
2017-03-23T06:44:21.386Z,18.2
2017-03-23T06:44:53.632Z,18.24
2017-03-23T06:45:25.886Z,18.17
2017-03-23T06:45:58.124Z,18.21
2017-03-23T06:46:31.299Z,18.2
2017-03-23T06:47:03.571Z,18.21
2017-03-23T06:47:36.324Z,18.2
2017-03-23T06:48:08.599Z,18.19
2017-03-23T06:48:40.852Z,18.21
2017-03-23T06:49:13.150Z,18.2
2017-03-23T06:49:45.462Z,18.26
2017-03-23T06:50:18.325Z,18.23
2017-03-23T06:50:50.580Z,18.35
2017-03-23T06:51:23.369Z,18.31
2017-03-23T06:51:56.283Z,18.21
2017-03-23T06:52:28.548Z,18.27
2017-03-23T06:53:00.779Z,18.32
2017-03-23T06:53:33.738Z,18.32
2017-03-23T06:54:06.004Z,18.27
2017-03-23T06:54:38.839Z,18.29
2017-03-23T06:55:11.139Z,18.27
2017-03-23T06:55:43.392Z,18.31
2017-03-23T06:56:16.334Z,18.34
2017-03-23T06:56:48.590Z,18.34
2017-03-23T06:57:20.850Z,18.38
2017-03-23T06:57:53.093Z,18.34
2017-03-23T06:58:25.835Z,18.41